sensor_id;sensor_type;location;lat;lon;timestamp;pressure;altitude;pressure_sealevel;temperature;humidity
69751;BME280;57335;52.288;6.056;2023-02-12T00:01:09;103825.63;;;6.26;100.00
69751;BME280;57335;52.288;6.056;2023-02-12T00:03:37;103830.09;;;6.24;100.00
69751;BME280;57335;52.288;6.056;2023-02-12T00:06:04;103826.22;;;6.16;100.00
69751;BME280;57335;52.288;6.056;2023-02-12T00:08:30;103831.66;;;6.13;100.00
69751;BME280;57335;52.288;6.056;2023-02-12T00:10:57;103828.59;;;6.07;100.00
69751;BME280;57335;52.288;6.056;2023-02-12T00:13:23;103819.34;;;6.03;100.00
69751;BME280;57335;52.288;6.056;2023-02-12T00:15:50;103826.63;;;5.97;100.00
69751;BME280;57335;52.288;6.056;2023-02-12T00:18:16;103821.81;;;5.91;100.00
69751;BME280;57335;52.288;6.056;2023-02-12T00:20:42;103840.84;;;5.92;100.00
69751;BME280;57335;52.288;6.056;2023-02-12T00:23:09;103833.84;;;5.79;100.00
69751;BME280;57335;52.288;6.056;2023-02-12T00:25:39;103832.38;;;5.75;100.00
69751;BME280;57335;52.288;6.056;2023-02-12T00:28:06;103832.47;;;5.74;100.00
69751;BME280;57335;52.288;6.056;2023-02-12T00:30:32;103837.13;;;5.69;100.00
69751;BME280;57335;52.288;6.056;2023-02-12T00:33:00;103831.19;;;5.67;100.00
69751;BME280;57335;52.288;6.056;2023-02-12T00:35:26;103840.59;;;5.69;100.00
69751;BME280;57335;52.288;6.056;2023-02-12T00:37:52;103837.22;;;5.67;100.00
69751;BME280;57335;52.288;6.056;2023-02-12T00:40:19;103838.25;;;5.65;100.00
69751;BME280;57335;52.288;6.056;2023-02-12T00:42:45;103830.94;;;5.57;100.00
69751;BME280;57335;52.288;6.056;2023-02-12T00:45:11;103827.44;;;5.58;100.00
69751;BME280;57335;52.288;6.056;2023-02-12T00:47:38;103835.97;;;5.60;100.00
69751;BME280;57335;52.288;6.056;2023-02-12T00:50:05;103828.75;;;5.51;100.00
69751;BME280;57335;52.288;6.056;2023-02-12T00:52:31;103824.50;;;5.50;100.00
69751;BME280;57335;52.288;6.056;2023-02-12T00:54:58;103825.81;;;5.43;100.00
69751;BME280;57335;52.288;6.056;2023-02-12T00:57:24;103830.47;;;5.37;100.00
69751;BME280;57335;52.288;6.056;2023-02-12T00:59:51;103840.31;;;5.32;100.00
69751;BME280;57335;52.288;6.056;2023-02-12T01:02:17;103836.25;;;5.28;100.00
69751;BME280;57335;52.288;6.056;2023-02-12T01:04:43;103830.06;;;5.16;100.00
69751;BME280;57335;52.288;6.056;2023-02-12T01:07:10;103823.13;;;5.03;100.00
69751;BME280;57335;52.288;6.056;2023-02-12T01:09:36;103833.50;;;5.03;100.00
69751;BME280;57335;52.288;6.056;2023-02-12T01:12:03;103822.03;;;4.92;100.00
69751;BME280;57335;52.288;6.056;2023-02-12T01:14:29;103820.47;;;4.90;100.00
69751;BME280;57335;52.288;6.056;2023-02-12T01:16:55;103828.44;;;4.87;100.00
69751;BME280;57335;52.288;6.056;2023-02-12T01:19:22;103838.66;;;4.90;100.00
69751;BME280;57335;52.288;6.056;2023-02-12T01:21:48;103831.41;;;4.80;100.00
69751;BME280;57335;52.288;6.056;2023-02-12T01:24:14;103839.03;;;4.84;100.00
69751;BME280;57335;52.288;6.056;2023-02-12T01:26:41;103830.94;;;4.74;100.00
69751;BME280;57335;52.288;6.056;2023-02-12T01:29:07;103844.69;;;4.76;100.00
69751;BME280;57335;52.288;6.056;2023-02-12T01:31:38;103830.59;;;4.66;100.00
69751;BME280;57335;52.288;6.056;2023-02-12T01:34:06;103829.19;;;4.60;100.00
69751;BME280;57335;52.288;6.056;2023-02-12T01:36:33;103831.22;;;4.55;100.00
69751;BME280;57335;52.288;6.056;2023-02-12T01:39:00;103834.47;;;4.44;100.00
69751;BME280;57335;52.288;6.056;2023-02-12T01:41:32;103840.75;;;4.40;100.00
69751;BME280;57335;52.288;6.056;2023-02-12T01:46:33;103841.03;;;4.21;100.00
69751;BME280;57335;52.288;6.056;2023-02-12T01:48:59;103850.38;;;4.24;100.00
69751;BME280;57335;52.288;6.056;2023-02-12T01:51:29;103843.19;;;4.13;100.00
69751;BME280;57335;52.288;6.056;2023-02-12T01:53:59;103855.34;;;4.12;100.00
69751;BME280;57335;52.288;6.056;2023-02-12T01:56:27;103850.34;;;4.09;100.00
69751;BME280;57335;52.288;6.056;2023-02-12T01:58:54;103830.88;;;4.02;100.00
69751;BME280;57335;52.288;6.056;2023-02-12T02:01:23;103843.31;;;4.11;100.00
69751;BME280;57335;52.288;6.056;2023-02-12T02:03:54;103845.16;;;4.09;100.00
69751;BME280;57335;52.288;6.056;2023-02-12T02:06:26;103828.94;;;4.06;100.00
69751;BME280;57335;52.288;6.056;2023-02-12T02:08:55;103847.47;;;4.14;100.00
69751;BME280;57335;52.288;6.056;2023-02-12T02:11:22;103834.13;;;4.06;100.00
69751;BME280;57335;52.288;6.056;2023-02-12T02:13:49;103829.94;;;4.03;100.00
69751;BME280;57335;52.288;6.056;2023-02-12T02:16:25;103832.97;;;3.95;100.00
69751;BME280;57335;52.288;6.056;2023-02-12T02:18:59;103830.81;;;3.88;100.00
69751;BME280;57335;52.288;6.056;2023-02-12T02:21:39;103824.97;;;3.84;100.00
69751;BME280;57335;52.288;6.056;2023-02-12T02:27:35;103827.75;;;3.81;100.00
69751;BME280;57335;52.288;6.056;2023-02-12T02:32:57;103824.34;;;3.65;100.00
69751;BME280;57335;52.288;6.056;2023-02-12T02:35:41;103837.22;;;3.66;100.00
69751;BME280;57335;52.288;6.056;2023-02-12T02:38:23;103822.00;;;3.60;100.00
69751;BME280;57335;52.288;6.056;2023-02-12T02:40:57;103817.91;;;3.56;100.00
69751;BME280;57335;52.288;6.056;2023-02-12T02:43:37;103813.22;;;3.47;100.00
69751;BME280;57335;52.288;6.056;2023-02-12T02:46:12;103808.84;;;3.33;100.00
69751;BME280;57335;52.288;6.056;2023-02-12T02:48:51;103820.88;;;3.34;100.00
69751;BME280;57335;52.288;6.056;2023-02-12T02:51:21;103812.81;;;3.23;100.00
69751;BME280;57335;52.288;6.056;2023-02-12T02:53:57;103815.88;;;3.15;100.00
69751;BME280;57335;52.288;6.056;2023-02-12T02:56:27;103815.94;;;3.13;100.00
69751;BME280;57335;52.288;6.056;2023-02-12T02:58:59;103811.16;;;3.06;100.00
69751;BME280;57335;52.288;6.056;2023-02-12T03:01:37;103811.91;;;3.08;100.00
69751;BME280;57335;52.288;6.056;2023-02-12T03:04:07;103811.25;;;3.04;100.00
69751;BME280;57335;52.288;6.056;2023-02-12T03:09:14;103797.94;;;2.94;100.00
69751;BME280;57335;52.288;6.056;2023-02-12T03:11:42;103796.38;;;2.92;100.00
69751;BME280;57335;52.288;6.056;2023-02-12T03:14:22;103801.03;;;2.85;100.00
69751;BME280;57335;52.288;6.056;2023-02-12T03:16:58;103797.91;;;2.78;100.00
69751;BME280;57335;52.288;6.056;2023-02-12T03:20:02;103795.75;;;2.71;100.00
69751;BME280;57335;52.288;6.056;2023-02-12T03:22:30;103810.38;;;2.72;100.00
69751;BME280;57335;52.288;6.056;2023-02-12T03:25:12;103808.34;;;2.61;100.00
69751;BME280;57335;52.288;6.056;2023-02-12T03:27:46;103804.78;;;2.46;100.00
69751;BME280;57335;52.288;6.056;2023-02-12T03:30:15;103805.34;;;2.35;100.00
69751;BME280;57335;52.288;6.056;2023-02-12T03:32:45;103818.44;;;2.32;100.00
69751;BME280;57335;52.288;6.056;2023-02-12T03:35:31;103816.16;;;2.26;100.00
69751;BME280;57335;52.288;6.056;2023-02-12T03:38:10;103803.00;;;2.13;100.00
69751;BME280;57335;52.288;6.056;2023-02-12T03:40:46;103803.41;;;2.06;100.00
69751;BME280;57335;52.288;6.056;2023-02-12T03:43:26;103807.88;;;2.02;100.00
69751;BME280;57335;52.288;6.056;2023-02-12T03:46:11;103808.34;;;1.93;100.00
69751;BME280;57335;52.288;6.056;2023-02-12T03:48:51;103807.13;;;1.83;100.00
69751;BME280;57335;52.288;6.056;2023-02-12T03:51:32;103820.06;;;1.83;100.00
69751;BME280;57335;52.288;6.056;2023-02-12T03:54:00;103818.81;;;1.72;100.00
69751;BME280;57335;52.288;6.056;2023-02-12T03:56:36;103822.25;;;1.73;100.00
69751;BME280;57335;52.288;6.056;2023-02-12T03:59:04;103812.19;;;1.67;100.00
69751;BME280;57335;52.288;6.056;2023-02-12T04:01:32;103827.63;;;1.68;100.00
69751;BME280;57335;52.288;6.056;2023-02-12T04:04:02;103821.09;;;1.61;100.00
69751;BME280;57335;52.288;6.056;2023-02-12T04:06:29;103827.25;;;1.58;100.00
69751;BME280;57335;52.288;6.056;2023-02-12T04:08:57;103832.41;;;1.58;100.00
69751;BME280;57335;52.288;6.056;2023-02-12T04:14:26;103821.88;;;1.44;100.00
69751;BME280;57335;52.288;6.056;2023-02-12T04:17:32;103841.34;;;1.51;100.00
69751;BME280;57335;52.288;6.056;2023-02-12T04:22:45;103845.59;;;1.52;100.00
69751;BME280;57335;52.288;6.056;2023-02-12T04:25:40;103842.25;;;1.50;100.00
69751;BME280;57335;52.288;6.056;2023-02-12T04:28:22;103853.44;;;1.51;100.00
69751;BME280;57335;52.288;6.056;2023-02-12T04:33:56;103835.66;;;1.45;100.00
69751;BME280;57335;52.288;6.056;2023-02-12T04:36:29;103842.19;;;1.52;100.00
69751;BME280;57335;52.288;6.056;2023-02-12T04:39:02;103851.47;;;1.56;100.00
69751;BME280;57335;52.288;6.056;2023-02-12T04:41:30;103870.69;;;1.69;100.00
69751;BME280;57335;52.288;6.056;2023-02-12T04:43:57;103863.69;;;1.71;100.00
69751;BME280;57335;52.288;6.056;2023-02-12T04:46:23;103872.97;;;1.75;100.00
69751;BME280;57335;52.288;6.056;2023-02-12T04:48:53;103869.94;;;1.85;100.00
69751;BME280;57335;52.288;6.056;2023-02-12T04:51:20;103872.25;;;1.91;100.00
69751;BME280;57335;52.288;6.056;2023-02-12T04:53:47;103868.50;;;1.96;100.00
69751;BME280;57335;52.288;6.056;2023-02-12T04:56:14;103857.38;;;1.94;100.00
69751;BME280;57335;52.288;6.056;2023-02-12T04:58:40;103868.13;;;2.04;100.00
69751;BME280;57335;52.288;6.056;2023-02-12T05:01:07;103868.06;;;2.06;100.00
69751;BME280;57335;52.288;6.056;2023-02-12T05:03:35;103857.94;;;2.01;100.00
69751;BME280;57335;52.288;6.056;2023-02-12T05:06:03;103844.31;;;1.97;100.00
69751;BME280;57335;52.288;6.056;2023-02-12T05:08:29;103861.75;;;2.11;100.00
69751;BME280;57335;52.288;6.056;2023-02-12T05:10:56;103856.50;;;2.13;100.00
69751;BME280;57335;52.288;6.056;2023-02-12T05:13:22;103846.38;;;2.08;100.00
69751;BME280;57335;52.288;6.056;2023-02-12T05:15:48;103861.59;;;2.14;100.00
69751;BME280;57335;52.288;6.056;2023-02-12T05:18:15;103850.94;;;2.03;100.00
69751;BME280;57335;52.288;6.056;2023-02-12T05:20:41;103872.25;;;2.08;100.00
69751;BME280;57335;52.288;6.056;2023-02-12T05:23:07;103866.41;;;2.05;100.00
69751;BME280;57335;52.288;6.056;2023-02-12T05:25:34;103870.50;;;2.09;100.00
69751;BME280;57335;52.288;6.056;2023-02-12T05:28:01;103864.72;;;2.04;100.00
69751;BME280;57335;52.288;6.056;2023-02-12T05:30:27;103872.88;;;2.13;100.00
69751;BME280;57335;52.288;6.056;2023-02-12T05:32:53;103859.09;;;2.13;100.00
69751;BME280;57335;52.288;6.056;2023-02-12T05:35:20;103857.81;;;2.22;100.00
69751;BME280;57335;52.288;6.056;2023-02-12T05:37:46;103864.50;;;2.26;100.00
69751;BME280;57335;52.288;6.056;2023-02-12T05:40:12;103878.81;;;2.33;100.00
69751;BME280;57335;52.288;6.056;2023-02-12T05:42:39;103864.34;;;2.29;100.00
69751;BME280;57335;52.288;6.056;2023-02-12T05:45:05;103869.81;;;2.40;100.00
69751;BME280;57335;52.288;6.056;2023-02-12T05:47:32;103869.69;;;2.43;100.00
69751;BME280;57335;52.288;6.056;2023-02-12T05:49:58;103875.06;;;2.56;100.00
69751;BME280;57335;52.288;6.056;2023-02-12T05:52:25;103877.41;;;2.60;100.00
69751;BME280;57335;52.288;6.056;2023-02-12T05:54:51;103873.78;;;2.65;100.00
69751;BME280;57335;52.288;6.056;2023-02-12T05:57:17;103875.28;;;2.69;100.00
69751;BME280;57335;52.288;6.056;2023-02-12T05:59:43;103874.09;;;2.74;100.00
69751;BME280;57335;52.288;6.056;2023-02-12T06:02:10;103874.03;;;2.76;100.00
69751;BME280;57335;52.288;6.056;2023-02-12T06:04:36;103879.66;;;2.84;100.00
69751;BME280;57335;52.288;6.056;2023-02-12T06:07:03;103870.97;;;2.85;100.00
69751;BME280;57335;52.288;6.056;2023-02-12T06:09:29;103866.38;;;2.90;100.00
69751;BME280;57335;52.288;6.056;2023-02-12T06:11:55;103882.22;;;3.02;100.00
69751;BME280;57335;52.288;6.056;2023-02-12T06:14:22;103864.31;;;2.97;100.00
69751;BME280;57335;52.288;6.056;2023-02-12T06:16:50;103879.91;;;3.13;100.00
69751;BME280;57335;52.288;6.056;2023-02-12T06:19:17;103887.50;;;3.16;100.00
69751;BME280;57335;52.288;6.056;2023-02-12T06:21:45;103886.25;;;3.23;100.00
69751;BME280;57335;52.288;6.056;2023-02-12T06:24:12;103889.59;;;3.25;100.00
69751;BME280;57335;52.288;6.056;2023-02-12T06:26:39;103871.59;;;3.22;100.00
69751;BME280;57335;52.288;6.056;2023-02-12T06:29:05;103887.25;;;3.36;100.00
69751;BME280;57335;52.288;6.056;2023-02-12T06:31:34;103882.00;;;3.38;100.00
69751;BME280;57335;52.288;6.056;2023-02-12T06:34:03;103870.03;;;3.35;100.00
69751;BME280;57335;52.288;6.056;2023-02-12T06:36:30;103866.50;;;3.36;100.00
69751;BME280;57335;52.288;6.056;2023-02-12T06:38:56;103867.03;;;3.43;100.00
69751;BME280;57335;52.288;6.056;2023-02-12T06:41:23;103881.31;;;3.50;100.00
69751;BME280;57335;52.288;6.056;2023-02-12T06:43:49;103869.53;;;3.45;100.00
69751;BME280;57335;52.288;6.056;2023-02-12T06:46:16;103886.09;;;3.58;100.00
69751;BME280;57335;52.288;6.056;2023-02-12T06:48:42;103894.63;;;3.60;100.00
69751;BME280;57335;52.288;6.056;2023-02-12T06:51:14;103888.34;;;3.64;100.00
69751;BME280;57335;52.288;6.056;2023-02-12T06:53:41;103883.91;;;3.66;100.00
69751;BME280;57335;52.288;6.056;2023-02-12T06:56:10;103880.06;;;3.73;100.00
69751;BME280;57335;52.288;6.056;2023-02-12T06:58:38;103884.31;;;3.74;100.00
69751;BME280;57335;52.288;6.056;2023-02-12T07:01:11;103885.81;;;3.78;100.00
69751;BME280;57335;52.288;6.056;2023-02-12T07:03:47;103903.38;;;3.89;100.00
69751;BME280;57335;52.288;6.056;2023-02-12T07:06:13;103905.78;;;3.92;100.00
69751;BME280;57335;52.288;6.056;2023-02-12T07:08:40;103907.28;;;3.96;100.00
69751;BME280;57335;52.288;6.056;2023-02-12T07:11:06;103898.69;;;3.96;100.00
69751;BME280;57335;52.288;6.056;2023-02-12T07:13:33;103893.66;;;3.93;100.00
69751;BME280;57335;52.288;6.056;2023-02-12T07:16:04;103891.72;;;3.96;100.00
69751;BME280;57335;52.288;6.056;2023-02-12T07:18:32;103909.31;;;4.07;100.00
69751;BME280;57335;52.288;6.056;2023-02-12T07:20:59;103907.47;;;4.09;100.00
69751;BME280;57335;52.288;6.056;2023-02-12T07:23:26;103889.81;;;4.00;100.00
69751;BME280;57335;52.288;6.056;2023-02-12T07:26:00;103915.13;;;4.11;100.00
69751;BME280;57335;52.288;6.056;2023-02-12T07:28:26;103910.59;;;4.14;100.00
69751;BME280;57335;52.288;6.056;2023-02-12T07:30:53;103904.59;;;4.14;100.00
69751;BME280;57335;52.288;6.056;2023-02-12T07:33:20;103909.44;;;4.20;100.00
69751;BME280;57335;52.288;6.056;2023-02-12T07:35:46;103926.06;;;4.32;100.00
69751;BME280;57335;52.288;6.056;2023-02-12T07:38:12;103928.38;;;4.36;100.00
69751;BME280;57335;52.288;6.056;2023-02-12T07:40:39;103912.41;;;4.28;100.00
69751;BME280;57335;52.288;6.056;2023-02-12T07:43:05;103933.97;;;4.45;100.00
69751;BME280;57335;52.288;6.056;2023-02-12T07:45:31;103939.81;;;4.48;100.00
69751;BME280;57335;52.288;6.056;2023-02-12T07:47:58;103940.50;;;4.52;100.00
69751;BME280;57335;52.288;6.056;2023-02-12T07:50:24;103943.63;;;4.57;100.00
69751;BME280;57335;52.288;6.056;2023-02-12T07:52:50;103934.94;;;4.58;100.00
69751;BME280;57335;52.288;6.056;2023-02-12T07:55:17;103933.91;;;4.60;100.00
69751;BME280;57335;52.288;6.056;2023-02-12T07:57:43;103953.88;;;4.74;100.00
69751;BME280;57335;52.288;6.056;2023-02-12T08:00:10;103951.13;;;4.77;100.00
69751;BME280;57335;52.288;6.056;2023-02-12T08:02:36;103944.91;;;4.80;100.00
69751;BME280;57335;52.288;6.056;2023-02-12T08:05:03;103953.72;;;4.92;100.00
69751;BME280;57335;52.288;6.056;2023-02-12T08:07:30;103956.06;;;4.96;100.00
69751;BME280;57335;52.288;6.056;2023-02-12T08:09:56;103950.56;;;5.01;100.00
69751;BME280;57335;52.288;6.056;2023-02-12T08:12:22;103964.50;;;5.14;100.00
69751;BME280;57335;52.288;6.056;2023-02-12T08:14:49;103968.41;;;5.22;100.00
69751;BME280;57335;52.288;6.056;2023-02-12T08:17:15;103962.09;;;5.26;100.00
69751;BME280;57335;52.288;6.056;2023-02-12T08:19:41;103975.25;;;5.37;100.00
69751;BME280;57335;52.288;6.056;2023-02-12T08:22:08;103976.88;;;5.39;100.00
69751;BME280;57335;52.288;6.056;2023-02-12T08:24:34;103965.44;;;5.42;100.00
69751;BME280;57335;52.288;6.056;2023-02-12T08:27:00;103967.81;;;5.45;100.00
69751;BME280;57335;52.288;6.056;2023-02-12T08:29:28;103980.94;;;5.58;100.00
69751;BME280;57335;52.288;6.056;2023-02-12T08:31:57;103975.25;;;5.66;100.00
69751;BME280;57335;52.288;6.056;2023-02-12T08:34:27;103978.19;;;5.74;100.00
69751;BME280;57335;52.288;6.056;2023-02-12T08:36:54;103978.66;;;5.80;100.00
69751;BME280;57335;52.288;6.056;2023-02-12T08:39:22;103979.94;;;5.88;100.00
69751;BME280;57335;52.288;6.056;2023-02-12T08:41:50;103980.78;;;5.88;100.00
69751;BME280;57335;52.288;6.056;2023-02-12T08:44:18;103988.13;;;5.96;100.00
69751;BME280;57335;52.288;6.056;2023-02-12T08:46:47;103990.88;;;6.07;100.00
69751;BME280;57335;52.288;6.056;2023-02-12T08:49:16;103989.56;;;6.14;100.00
69751;BME280;57335;52.288;6.056;2023-02-12T08:51:45;103998.66;;;6.22;100.00
69751;BME280;57335;52.288;6.056;2023-02-12T08:54:14;103988.09;;;6.23;100.00
69751;BME280;57335;52.288;6.056;2023-02-12T08:56:42;103999.41;;;6.36;100.00
69751;BME280;57335;52.288;6.056;2023-02-12T08:59:09;103998.28;;;6.41;100.00
69751;BME280;57335;52.288;6.056;2023-02-12T09:01:37;103995.34;;;6.45;100.00
69751;BME280;57335;52.288;6.056;2023-02-12T09:04:04;104006.84;;;6.55;100.00
69751;BME280;57335;52.288;6.056;2023-02-12T09:06:33;104010.00;;;6.61;100.00
69751;BME280;57335;52.288;6.056;2023-02-12T09:09:01;104013.97;;;6.66;100.00
69751;BME280;57335;52.288;6.056;2023-02-12T09:11:28;104010.22;;;6.70;100.00
69751;BME280;57335;52.288;6.056;2023-02-12T09:13:55;104014.84;;;6.79;100.00
69751;BME280;57335;52.288;6.056;2023-02-12T09:16:22;104003.56;;;6.79;100.00
69751;BME280;57335;52.288;6.056;2023-02-12T09:18:49;104015.03;;;6.89;100.00
69751;BME280;57335;52.288;6.056;2023-02-12T09:21:18;104004.50;;;6.91;100.00
69751;BME280;57335;52.288;6.056;2023-02-12T09:23:45;104012.53;;;7.01;100.00
69751;BME280;57335;52.288;6.056;2023-02-12T09:26:16;104008.59;;;7.08;100.00
69751;BME280;57335;52.288;6.056;2023-02-12T09:28:43;104009.09;;;7.13;100.00
69751;BME280;57335;52.288;6.056;2023-02-12T09:31:11;104011.81;;;7.24;100.00
69751;BME280;57335;52.288;6.056;2023-02-12T09:33:39;104009.13;;;7.26;100.00
69751;BME280;57335;52.288;6.056;2023-02-12T09:36:12;104010.13;;;7.36;100.00
69751;BME280;57335;52.288;6.056;2023-02-12T09:38:40;104011.47;;;7.42;100.00
69751;BME280;57335;52.288;6.056;2023-02-12T09:41:23;104017.13;;;7.48;100.00
69751;BME280;57335;52.288;6.056;2023-02-12T09:46:32;104006.88;;;7.58;100.00
69751;BME280;57335;52.288;6.056;2023-02-12T09:49:09;104007.88;;;7.68;100.00
69751;BME280;57335;52.288;6.056;2023-02-12T09:51:41;104002.44;;;7.71;100.00
69751;BME280;57335;52.288;6.056;2023-02-12T09:54:16;103990.63;;;7.78;100.00
69751;BME280;57335;52.288;6.056;2023-02-12T09:56:46;103994.97;;;7.91;100.00
69751;BME280;57335;52.288;6.056;2023-02-12T09:59:30;103995.03;;;8.02;100.00
69751;BME280;57335;52.288;6.056;2023-02-12T10:01:59;103995.06;;;8.13;100.00
69751;BME280;57335;52.288;6.056;2023-02-12T10:04:27;104004.75;;;8.24;100.00
69751;BME280;57335;52.288;6.056;2023-02-12T10:15:18;104003.63;;;8.75;100.00
69751;BME280;57335;52.288;6.056;2023-02-12T10:26:36;104014.38;;;9.06;97.77
69751;BME280;57335;52.288;6.056;2023-02-12T10:29:12;103992.72;;;9.04;98.48
69751;BME280;57335;52.288;6.056;2023-02-12T10:31:43;103992.50;;;9.07;98.96
69751;BME280;57335;52.288;6.056;2023-02-12T10:34:20;103998.34;;;9.10;95.87
69751;BME280;57335;52.288;6.056;2023-02-12T10:36:48;104009.38;;;9.14;96.37
69751;BME280;57335;52.288;6.056;2023-02-12T10:39:23;104005.56;;;9.18;97.22
69751;BME280;57335;52.288;6.056;2023-02-12T10:44:20;103995.47;;;9.25;95.79
69751;BME280;57335;52.288;6.056;2023-02-12T10:46:46;103997.72;;;9.29;95.16
69751;BME280;57335;52.288;6.056;2023-02-12T10:49:15;104001.88;;;9.32;95.42
69751;BME280;57335;52.288;6.056;2023-02-12T10:52:11;104005.94;;;9.36;96.12
69751;BME280;57335;52.288;6.056;2023-02-12T10:54:44;104008.31;;;9.39;94.46
69751;BME280;57335;52.288;6.056;2023-02-12T10:59:39;104007.34;;;9.40;95.13
69751;BME280;57335;52.288;6.056;2023-02-12T11:02:37;104009.41;;;9.36;94.09
69751;BME280;57335;52.288;6.056;2023-02-12T11:05:22;103996.09;;;9.28;95.26
69751;BME280;57335;52.288;6.056;2023-02-12T11:07:50;104013.66;;;9.37;95.68
69751;BME280;57335;52.288;6.056;2023-02-12T11:10:32;104003.94;;;9.28;95.17
69751;BME280;57335;52.288;6.056;2023-02-12T11:13:01;104014.03;;;9.33;95.24
69751;BME280;57335;52.288;6.056;2023-02-12T11:15:35;104000.34;;;9.29;95.49
69751;BME280;57335;52.288;6.056;2023-02-12T11:18:05;103998.56;;;9.30;94.87
69751;BME280;57335;52.288;6.056;2023-02-12T11:20:37;104006.28;;;9.31;95.75
69751;BME280;57335;52.288;6.056;2023-02-12T11:23:06;104001.31;;;9.28;95.19
69751;BME280;57335;52.288;6.056;2023-02-12T11:25:58;103984.41;;;9.21;94.29
69751;BME280;57335;52.288;6.056;2023-02-12T11:28:25;104004.53;;;9.21;91.92
69751;BME280;57335;52.288;6.056;2023-02-12T11:30:56;104002.59;;;9.11;91.74
69751;BME280;57335;52.288;6.056;2023-02-12T11:33:32;103995.72;;;9.10;92.18
69751;BME280;57335;52.288;6.056;2023-02-12T11:36:20;103995.47;;;9.02;90.88
69751;BME280;57335;52.288;6.056;2023-02-12T11:38:54;103996.78;;;8.96;90.96
69751;BME280;57335;52.288;6.056;2023-02-12T11:44:16;103986.66;;;8.92;91.83
69751;BME280;57335;52.288;6.056;2023-02-12T11:46:50;103984.88;;;8.92;91.65
69751;BME280;57335;52.288;6.056;2023-02-12T11:49:23;103990.59;;;8.97;90.97
69751;BME280;57335;52.288;6.056;2023-02-12T11:51:51;103987.97;;;8.97;91.69
69751;BME280;57335;52.288;6.056;2023-02-12T11:54:21;103989.38;;;9.02;91.98
69751;BME280;57335;52.288;6.056;2023-02-12T11:56:49;103985.84;;;9.03;93.01
69751;BME280;57335;52.288;6.056;2023-02-12T11:59:36;103984.66;;;9.07;93.04
69751;BME280;57335;52.288;6.056;2023-02-12T12:02:25;103989.53;;;9.11;92.58
69751;BME280;57335;52.288;6.056;2023-02-12T12:05:05;103971.22;;;9.11;93.17
69751;BME280;57335;52.288;6.056;2023-02-12T12:07:35;103965.03;;;9.12;92.60
69751;BME280;57335;52.288;6.056;2023-02-12T12:10:16;103965.59;;;9.16;93.29
69751;BME280;57335;52.288;6.056;2023-02-12T12:12:57;103967.06;;;9.20;93.05
69751;BME280;57335;52.288;6.056;2023-02-12T12:15:30;103966.22;;;9.19;93.29
69751;BME280;57335;52.288;6.056;2023-02-12T12:20:40;103959.56;;;9.27;93.18
69751;BME280;57335;52.288;6.056;2023-02-12T12:26:05;103956.34;;;9.23;92.24
69751;BME280;57335;52.288;6.056;2023-02-12T12:28:53;103958.03;;;9.24;93.39
69751;BME280;57335;52.288;6.056;2023-02-12T12:31:31;103953.50;;;9.26;92.42
69751;BME280;57335;52.288;6.056;2023-02-12T12:34:06;103946.69;;;9.24;nan
69751;BME280;57335;52.288;6.056;2023-02-12T12:45:09;103935.41;;;9.34;90.04
69751;BME280;57335;52.288;6.056;2023-02-12T12:50:40;103940.75;;;9.33;89.86
69751;BME280;57335;52.288;6.056;2023-02-12T13:10:11;103928.03;;;9.28;90.13
69751;BME280;57335;52.288;6.056;2023-02-12T13:15:44;103918.72;;;9.35;90.54
69751;BME280;57335;52.288;6.056;2023-02-12T13:18:28;103918.25;;;9.42;90.28
69751;BME280;57335;52.288;6.056;2023-02-12T13:21:57;103914.41;;;9.46;88.98
69751;BME280;57335;52.288;6.056;2023-02-12T13:24:37;103921.34;;;9.47;87.65
69751;BME280;57335;52.288;6.056;2023-02-12T13:29:52;103910.16;;;9.45;88.36
69751;BME280;57335;52.288;6.056;2023-02-12T13:32:27;103912.78;;;9.45;88.25
69751;BME280;57335;52.288;6.056;2023-02-12T13:34:55;103900.38;;;9.47;88.09
69751;BME280;57335;52.288;6.056;2023-02-12T13:37:35;103910.59;;;9.50;87.94
69751;BME280;57335;52.288;6.056;2023-02-12T13:40:07;103898.84;;;9.44;87.35
69751;BME280;57335;52.288;6.056;2023-02-12T13:42:42;103903.22;;;9.55;87.07
69751;BME280;57335;52.288;6.056;2023-02-12T13:45:29;103906.53;;;9.57;84.88
69751;BME280;57335;52.288;6.056;2023-02-12T13:53:06;103905.72;;;9.56;84.90
69751;BME280;57335;52.288;6.056;2023-02-12T13:56:00;103894.34;;;9.46;84.62
69751;BME280;57335;52.288;6.056;2023-02-12T14:00:59;103892.19;;;9.40;85.58
69751;BME280;57335;52.288;6.056;2023-02-12T14:03:28;103899.78;;;9.43;85.79
69751;BME280;57335;52.288;6.056;2023-02-12T14:06:15;103907.53;;;9.45;85.54
69751;BME280;57335;52.288;6.056;2023-02-12T14:08:46;103898.97;;;9.43;86.63
69751;BME280;57335;52.288;6.056;2023-02-12T14:11:17;103881.84;;;9.38;85.19
69751;BME280;57335;52.288;6.056;2023-02-12T14:13:54;103891.81;;;9.45;83.30
69751;BME280;57335;52.288;6.056;2023-02-12T14:21:39;103868.56;;;9.30;84.51
69751;BME280;57335;52.288;6.056;2023-02-12T14:27:31;103882.91;;;9.36;84.96
69751;BME280;57335;52.288;6.056;2023-02-12T14:35:33;103888.41;;;9.33;83.58
69751;BME280;57335;52.288;6.056;2023-02-12T14:43:17;103888.06;;;9.26;83.71
69751;BME280;57335;52.288;6.056;2023-02-12T14:45:46;103882.72;;;9.16;83.97
69751;BME280;57335;52.288;6.056;2023-02-12T14:48:47;103892.22;;;9.17;83.91
69751;BME280;57335;52.288;6.056;2023-02-12T14:51:16;103889.97;;;9.13;84.50
69751;BME280;57335;52.288;6.056;2023-02-12T14:53:46;103888.44;;;9.10;84.94
69751;BME280;57335;52.288;6.056;2023-02-12T14:56:19;103886.16;;;9.06;84.80
69751;BME280;57335;52.288;6.056;2023-02-12T14:58:47;103880.38;;;9.02;85.21
69751;BME280;57335;52.288;6.056;2023-02-12T15:01:14;103892.25;;;9.06;85.13
69751;BME280;57335;52.288;6.056;2023-02-12T15:03:46;103888.94;;;9.04;85.78
69751;BME280;57335;52.288;6.056;2023-02-12T15:06:19;103879.66;;;9.00;85.84